Latest Weather Observations for Edinburgh

IDS60901

Issued at 7:45 pm CST Sunday 31 August 2014 (issued every 10 minutes, with the page automatically refreshed every 10 minutes)

About weather observations | Map of Adelaide area stations | Latest observations for Adelaide area | Other Formats
Station Details ID: 023083 Name: EDINBURGH RAAF Lat: -34.71 Lon: 138.62 Height: 16.54 m
Data from the previous 72 hours. | See also: Recent months at Edinburgh
Date/Time
CST
Tmp

°C
App
Tmp
°C
Dew
Point
°C
Rel
Hum
%
Delta-T

°C
Wind Press
QNH
hPa
Press
MSL
hPa
Rain
since
9 am
mm
Dir
 
Spd
km/h
Gust
km/h
Spd
kts
Gust
kts
31/07:30pm 16.1 14.2 7.6 57 4.3 WNW 7 9 4 5 1011.2 1011.2 0.0
31/07:00pm 17.2 14.5 7.3 52 5.0 W 11 17 6 9 1010.6 1010.6 0.0
31/06:30pm 17.7 14.4 8.0 53 4.9 NE 15 17 8 9 1010.3 1010.3 0.0
31/06:00pm 18.1 15.1 7.5 50 5.4 NE 13 17 7 9 1010.5 1010.5 0.0
31/05:30pm 17.9 14.9 7.6 51 5.2 NNE 13 17 7 9 1010.3 1010.3 0.0
31/05:00pm 19.6 15.5 6.0 41 6.7 N 17 20 9 11 1010.2 1010.2 0.0
31/04:30pm 20.5 15.9 5.7 38 7.4 N 19 22 10 12 1010.0 1010.0 0.0
31/04:00pm 21.0 15.9 4.1 33 8.2 N 20 24 11 13 1009.8 1009.8 0.0
31/03:30pm 21.6 15.6 3.3 30 8.7 N 24 32 13 17 1010.5 1010.5 0.0
31/03:00pm 21.7 15.7 3.4 30 8.8 N 24 33 13 18 1010.7 1010.7 0.0
31/02:30pm 20.9 16.0 5.3 36 7.7 N 20 26 11 14 1011.6 1011.6 0.0
31/02:00pm 21.7 15.9 4.3 32 8.5 N 24 37 13 20 1011.8 1011.8 0.0
31/01:30pm 21.9 16.1 4.5 32 8.5 N 24 32 13 17 1012.4 1012.4 0.0
31/01:00pm 21.6 16.4 5.5 35 8.0 N 22 28 12 15 1013.0 1013.0 0.0
31/12:30pm 22.8 16.6 4.3 30 9.1 N 26 35 14 19 1013.4 1013.4 0.0
31/12:00pm 22.4 14.9 3.5 29 9.1 N 32 44 17 24 1014.3 1014.3 0.0
31/11:30am 21.0 14.2 3.2 31 8.4 N 28 46 15 25 1014.6 1014.6 0.0
31/11:23am 21.1 14.2 2.4 29 8.7 N 28 46 15 25 1014.7 1014.7 0.0
31/11:00am 20.7 14.2 2.5 30 8.5 N 26 37 14 20 1015.0 1015.0 0.0
31/10:30am 20.1 14.5 3.3 33 7.9 N 22 33 12 18 1015.8 1015.8 0.0
31/10:00am 16.7 12.8 5.3 47 5.5 NNE 15 20 8 11 1015.6 1015.6 0.0
31/09:30am 15.9 11.1 4.6 47 5.3 NNE 19 22 10 12 1015.5 1015.5 0.0
31/09:00am 15.2 10.8 4.6 49 4.9 NE 17 20 9 11 1015.7 1015.7 0.0
31/08:30am 14.1 9.6 4.4 52 4.5 NNE 17 22 9 12 1015.8 1015.8 0.0
31/08:00am 13.9 9.1 4.5 53 4.3 NE 19 22 10 12 1015.9 1015.9 0.0
31/07:30am 11.9 7.3 3.7 57 3.6 NE 17 20 9 11 1016.1 1016.1 0.0
31/07:00am 10.2 5.6 3.7 64 2.9 NE 17 19 9 10 1016.2 1016.2 0.0
31/06:30am 10.7 7.2 3.3 60 3.2 NNE 11 13 6 7 1016.4 1016.4 0.0
31/06:00am 11.7 7.0 3.0 55 3.8 NE 17 20 9 11 1015.8 1015.8 0.0
31/05:30am 11.5 6.4 3.0 56 3.7 NE 19 20 10 11 1015.7 1015.7 0.0
31/05:00am 11.6 6.5 2.9 55 3.8 NE 19 22 10 12 1015.7 1015.7 0.0
31/04:30am 11.9 7.2 2.9 54 3.9 NE 17 20 9 11 1015.6 1015.6 0.0
31/04:00am 11.8 6.7 3.1 55 3.8 NE 19 24 10 13 1015.5 1015.5 0.0
31/03:30am 11.4 6.4 3.7 59 3.4 NE 19 20 10 11 1015.7 1015.7 0.0
31/03:00am 11.0 6.1 4.0 62 3.1 NE 19 22 10 12 1015.8 1015.8 0.0
31/02:30am 9.8 4.9 4.2 68 2.5 NE 19 20 10 11 1016.2 1016.2 0.0
31/02:00am 10.1 5.9 4.0 66 2.7 NNE 15 19 8 10 1016.6 1016.6 0.0
31/01:30am 10.7 6.9 4.0 63 3.0 NNE 13 19 7 10 1016.7 1016.7 0.0
31/01:00am 11.9 7.2 5.1 63 3.1 NE 19 22 10 12 1016.8 1016.8 0.0
31/12:30am 11.0 6.3 5.3 68 2.6 NE 19 20 10 11 1017.0 1017.0 0.0
31/12:00am 11.3 7.5 5.6 68 2.6 NE 15 19 8 10 1017.3 1017.3 0.0
 
Date/Time
CST
Tmp

°C
App
Tmp
°C
Dew
Point
°C
Rel
Hum
%
Delta-T

°C
Wind Press
QNH
hPa
Press
MSL
hPa
Rain
since
9 am
mm
Dir
 
Spd
km/h
Gust
km/h
Spd
kts
Gust
kts
30/11:30pm 11.7 7.6 6.0 68 2.7 NE 17 19 9 10 1017.5 1017.5 0.0
30/11:00pm 10.9 7.1 5.7 70 2.4 NE 15 17 8 9 1017.8 1017.8 0.0
30/10:30pm 10.4 6.9 5.4 71 2.3 ENE 13 15 7 8 1018.1 1018.1 0.0
30/10:00pm 11.3 8.0 6.2 71 2.4 NE 13 17 7 9 1018.4 1018.4 0.0
30/09:30pm 11.0 7.6 6.0 71 2.3 NE 13 13 7 7 1018.6 1018.6 0.0
30/09:00pm 11.9 8.9 5.8 66 2.8 ENE 11 11 6 6 1018.7 1018.7 0.0
30/08:30pm 12.2 9.7 6.5 68 2.7 NE 9 11 5 6 1018.9 1018.9 0.0
30/08:00pm 13.7 11.2 6.6 62 3.4 ENE 9 11 5 6 1018.9 1018.9 0.0
30/07:30pm 14.9 12.7 6.0 55 4.3 E 7 9 4 5 1018.9 1018.9 0.0
30/07:00pm 16.1 13.4 5.4 49 5.1 E 9 13 5 7 1018.9 1018.9 0.0
30/06:30pm 17.6 15.4 5.2 44 6.0 SE 6 7 3 4 1019.1 1019.1 0.0
30/06:00pm 19.3 17.8 5.0 39 6.9 SSE 2 7 1 4 1019.1 1019.1 0.0
30/05:30pm 20.3 18.3 4.4 35 7.7 SSW 4 9 2 5 1018.9 1018.9 0.0
30/05:00pm 19.9 17.9 8.6 48 5.9 WSW 9 11 5 6 1018.8 1018.8 0.0
30/04:30pm 21.9 18.3 4.9 33 8.4 W 13 17 7 9 1018.8 1018.8 0.0
30/04:00pm 21.8 17.5 5.3 34 8.2 W 17 26 9 14 1019.2 1019.2 0.0
30/03:30pm 23.7 18.5 3.6 27 9.8 NNW 20 26 11 14 1019.4 1019.4 0.0
30/03:00pm 23.9 18.3 3.2 26 10.0 NNW 22 30 12 16 1019.5 1019.5 0.0
30/02:30pm 23.7 18.8 4.1 28 9.6 N 19 32 10 17 1019.7 1019.7 0.0
30/02:00pm 24.2 17.3 2.4 24 10.4 NNW 28 35 15 19 1020.1 1020.1 0.0
30/01:30pm 24.0 17.4 2.2 24 10.3 N 26 35 14 19 1020.4 1020.4 0.0
30/01:00pm 24.2 17.9 3.5 26 10.1 N 26 35 14 19 1020.8 1020.8 0.0
30/12:30pm 23.8 18.2 5.2 30 9.3 N 24 30 13 16 1021.4 1021.4 0.0
30/12:00pm 23.1 17.9 3.6 28 9.4 NNW 20 28 11 15 1021.9 1021.9 0.0
30/11:30am 23.3 18.9 4.8 30 9.2 NNW 17 24 9 13 1022.3 1022.3 0.0
30/11:00am 22.2 18.7 7.2 38 7.7 N 15 20 8 11 1022.7 1022.7 0.0
30/10:30am 21.6 17.8 7.4 40 7.3 N 17 22 9 12 1023.0 1023.0 0.0
30/10:00am 20.3 17.0 8.0 45 6.4 NNE 15 19 8 10 1023.3 1023.3 0.0
30/09:30am 17.9 14.4 8.7 55 4.7 NE 17 20 9 11 1023.5 1023.5 0.0
30/09:00am 16.9 14.3 9.3 61 3.9 N 13 19 7 10 1023.7 1023.7 0.0
30/08:30am 14.4 12.8 8.8 69 2.8 NNW 7 15 4 8 1023.6 1023.6 0.0
30/08:00am 10.7 9.0 7.4 80 1.6 NNE 6 7 3 4 1023.4 1023.4 0.0
30/07:30am 7.5 5.2 5.5 87 0.9 ENE 7 9 4 5 1023.3 1023.3 0.0
30/07:00am 7.5 4.6 4.5 81 1.3 ENE 9 11 5 6 1023.3 1023.3 0.0
30/06:30am 6.2 4.0 3.5 83 1.1 E 4 6 2 3 1023.3 1023.3 0.0
30/06:00am 6.6 4.0 4.1 84 1.1 NE 7 7 4 4 1023.3 1023.3 0.0
30/05:30am 6.1 4.8 3.9 86 0.9 CALM 0 0 0 0 1023.4 1023.4 0.0
30/05:00am 6.0 4.5 2.8 80 1.3 CALM 0 0 0 0 1023.5 1023.5 0.0
30/04:30am 8.3 7.2 4.9 79 1.5 CALM 0 0 0 0 1023.5 1023.5 0.0
30/04:00am 7.7 6.5 4.5 80 1.4 CALM 0 0 0 0 1023.4 1023.4 0.0
30/03:30am 7.7 4.8 4.7 81 1.3 N 9 9 5 5 1023.3 1023.3 0.0
30/03:00am 7.6 4.3 4.6 81 1.3 N 11 13 6 7 1023.3 1023.3 0.0
30/02:30am 8.1 4.5 5.0 81 1.4 N 13 15 7 8 1023.5 1023.5 0.0
30/02:00am 8.0 4.4 4.8 80 1.4 N 13 15 7 8 1023.7 1023.7 0.0
30/01:30am 9.0 6.7 5.6 79 1.5 NNE 7 9 4 5 1024.0 1024.0 0.0
30/01:00am 9.8 7.5 5.6 75 1.9 N 7 9 4 5 1024.2 1024.2 0.0
30/12:30am 11.0 8.5 6.7 75 2.0 NNE 9 11 5 6 1024.2 1024.2 0.0
30/12:00am 9.8 7.1 5.8 76 1.8 NE 9 11 5 6 1024.3 1024.3 0.0
 
Date/Time
CST
Tmp

°C
App
Tmp
°C
Dew
Point
°C
Rel
Hum
%
Delta-T

°C
Wind Press
QNH
hPa
Press
MSL
hPa
Rain
since
9 am
mm
Dir
 
Spd
km/h
Gust
km/h
Spd
kts
Gust
kts
29/11:30pm 10.1 7.2 6.3 77 1.8 NE 11 13 6 7 1024.5 1024.5 0.0
29/11:00pm 11.6 9.3 5.9 68 2.7 N 7 11 4 6 1024.6 1024.6 0.0
29/10:30pm 13.0 10.5 6.6 65 3.0 NE 9 9 5 5 1024.8 1024.8 0.0
29/10:00pm 13.9 11.3 7.9 67 3.0 ENE 11 13 6 7 1025.0 1025.0 0.0
29/09:30pm 11.8 9.6 7.7 76 2.0 NE 9 11 5 6 1025.3 1025.3 0.0
29/09:00pm 11.2 8.8 7.1 76 1.9 N 9 15 5 8 1025.4 1025.4 0.0
29/08:30pm 13.3 11.4 6.6 64 3.2 E 6 7 3 4 1025.0 1025.0 0.0
29/08:00pm 16.2 14.0 6.3 52 4.8 SE 7 9 4 5 1024.8 1024.8 0.0
29/07:30pm 15.9 13.9 6.1 52 4.7 SSE 6 7 3 4 1024.9 1024.9 0.0
29/07:00pm 15.0 12.8 6.0 55 4.3 S 7 11 4 6 1024.8 1024.8 0.0
29/06:30pm 18.7 16.1 5.9 43 6.3 S 9 11 5 6 1024.7 1024.7 0.0
29/06:00pm 17.8 15.4 7.2 50 5.3 SSW 9 11 5 6 1024.7 1024.7 0.0
29/05:30pm 19.3 16.2 7.4 46 6.0 SSW 13 15 7 8 1024.7 1024.7 0.0
29/05:00pm 21.0 18.3 8.9 46 6.4 SW 13 17 7 9 1024.7 1024.7 0.0
29/04:30pm 22.0 18.9 7.4 39 7.5 SW 13 17 7 9 1024.7 1024.7 0.0
29/04:00pm 22.5 19.1 9.0 42 7.2 WSW 17 19 9 10 1024.8 1024.8 0.0
29/03:30pm 23.1 20.6 9.8 43 7.2 W 13 17 7 9 1024.8 1024.8 0.0
29/03:00pm 23.0 20.2 8.7 40 7.6 W 13 17 7 9 1025.1 1025.1 0.0
29/02:30pm 22.7 19.7 9.1 42 7.3 WSW 15 19 8 10 1025.4 1025.4 0.0
29/02:00pm 22.4 20.1 10.5 47 6.5 WSW 13 17 7 9 1025.7 1025.7 0.0
29/01:30pm 22.5 18.9 10.0 45 6.8 WSW 19 22 10 12 1026.0 1026.0 0.0
29/01:00pm 24.5 22.6 6.7 32 9.2 NNE 6 9 3 5 1026.3 1026.3 0.0
29/12:30pm 23.4 20.6 5.3 31 9.0 NNW 9 17 5 9 1026.9 1026.9 0.0
29/12:00pm 22.8 20.1 7.4 37 8.0 N 11 17 6 9 1027.6 1027.6 0.0
29/11:30am 22.3 19.6 7.3 38 7.7 N 11 15 6 8 1028.0 1028.0 0.0
29/11:00am 21.4 18.8 7.6 41 7.1 NNE 11 17 6 9 1028.3 1028.3 0.0
29/10:30am 21.0 18.9 9.6 48 6.1 N 11 15 6 8 1028.4 1028.4 0.0
29/10:00am 17.9 17.3 10.5 62 4.0 S 4 7 2 4 1028.4 1028.4 0.0
29/09:30am 16.5 15.7 9.7 64 3.5 NNE 4 7 2 4 1028.6 1028.6 0.0
29/09:00am 13.7 12.4 9.2 74 2.3 NNW 6 7 3 4 1028.6 1028.6 0.0
29/08:30am 11.4 9.7 8.3 81 1.5 NNW 7 9 4 5 1028.6 1028.6 0.0
29/08:00am 8.9 6.9 6.3 84 1.2 NE 6 7 3 4 1028.6 1028.6 0.0
29/07:30am 6.9 4.7 5.4 90 0.7 NE 6 7 3 4 1028.4 1028.4 0.0
29/07:00am 5.4 2.9 3.7 89 0.7 ENE 6 6 3 3 1028.4 1028.4 0.0
29/06:30am 6.2 5.0 4.5 89 0.7 CALM 0 0 0 0 1028.3 1028.3 0.0
29/06:00am 5.3 2.8 3.8 90 0.6 W 6 9 3 5 1028.0 1028.0 0.0
29/05:30am 4.3 1.0 2.3 87 0.8 WNW 9 11 5 6 1027.7 1027.7 0.0
29/05:00am 6.6 5.5 4.9 89 0.7 CALM 0 0 0 0 1027.5 1027.5 0.0
29/04:30am 6.2 5.0 4.4 88 0.8 CALM 0 0 0 0 1027.5 1027.5 0.0
29/04:00am 6.4 5.2 4.4 87 0.9 CALM 0 0 0 0 1027.4 1027.4 0.0
29/03:30am 6.6 3.7 4.8 88 0.8 N 9 13 5 7 1027.3 1027.3 0.0
29/03:00am 6.9 4.0 4.9 87 0.9 N 9 11 5 6 1027.4 1027.4 0.0
29/02:30am 7.0 4.5 4.8 86 1.0 NW 7 9 4 5 1027.4 1027.4 0.0
29/02:00am 9.8 7.8 6.2 78 1.7 NE 6 7 3 4 1027.6 1027.6 0.0
29/01:30am 9.7 7.2 6.4 80 1.5 NNE 9 9 5 5 1027.8 1027.8 0.0
29/01:00am 9.6 7.4 6.1 79 1.6 NNE 7 9 4 5 1027.8 1027.8 0.0
29/12:30am 10.0 8.0 7.1 82 1.4 NE 7 9 4 5 1028.0 1028.0 0.0
29/12:00am 8.8 6.7 5.9 82 1.3 NE 6 9 3 5 1027.9 1027.9 0.0
 
Date/Time
CST
Tmp

°C
App
Tmp
°C
Dew
Point
°C
Rel
Hum
%
Delta-T

°C
Wind Press
QNH
hPa
Press
MSL
hPa
Rain
since
9 am
mm
Dir
 
Spd
km/h
Gust
km/h
Spd
kts
Gust
kts
28/11:30pm 9.6 7.2 6.9 83 1.3 NE 9 11 5 6 1028.0 1028.0 0.0
28/11:00pm 10.4 7.7 7.5 82 1.4 NE 11 13 6 7 1028.1 1028.1 0.0
28/10:30pm 10.1 7.7 6.8 80 1.5 NNE 9 9 5 5 1028.2 1028.2 0.0
28/10:00pm 11.0 10.3 6.9 76 1.9 CALM 0 7 0 4 1028.2 1028.2 0.0
28/09:30pm 11.3 9.5 5.6 68 2.6 SE 4 7 2 4 1028.2 1028.2 0.0
28/09:00pm 14.6 12.9 8.3 66 3.1 SSE 7 9 4 5 1028.1 1028.1 0.0
28/08:30pm 13.6 12.0 8.2 70 2.7 SE 6 7 3 4 1028.0 1028.0 0.0
28/08:00pm 14.9 13.2 8.2 64 3.4 SE 7 11 4 6 1027.6 1027.6 0.0

Latest Capital City Observations: Canberra | Sydney | Melbourne | Brisbane | Adelaide | Perth | Hobart | Darwin

Other Formats:

Comma delimited format used in spreadsheet applications
http://www.bom.gov.au/fwo/IDS60901/IDS60901.95676.axf

JavaScript Object Notation format (JSON) in row-major order
http://www.bom.gov.au/fwo/IDS60901/IDS60901.95676.json